createdAt,value
2023-05-24T00:00:04.808Z,73.88
2023-05-24T00:01:04.793Z,74.22
2023-05-24T00:02:04.813Z,73.81
2023-05-24T00:03:04.981Z,73.61
2023-05-24T00:04:04.865Z,74.22
2023-05-24T00:05:04.829Z,74.11
2023-05-24T00:06:04.771Z,73.71
2023-05-24T00:07:04.918Z,73.68
2023-05-24T00:08:04.711Z,73.57
2023-05-24T00:09:04.674Z,73.88
2023-05-24T00:10:04.697Z,73.57
2023-05-24T00:11:04.671Z,73.71
2023-05-24T00:12:04.727Z,73.61
2023-05-24T00:13:04.630Z,74.02
2023-05-24T00:14:04.650Z,75.35
2023-05-24T00:15:04.631Z,73.81
2023-05-24T00:16:04.622Z,74.22
2023-05-24T00:17:04.679Z,74.11
2023-05-24T00:18:04.650Z,74.11
2023-05-24T00:19:04.574Z,74.73
2023-05-24T00:20:06.662Z,73.81
2023-05-24T00:21:04.548Z,74.43
2023-05-24T00:22:04.581Z,73.91
2023-05-24T00:23:04.543Z,73.33
2023-05-24T00:24:04.566Z,73.64
2023-05-24T00:25:04.518Z,73.33
2023-05-24T00:26:04.505Z,73.33
2023-05-24T00:27:04.483Z,74.15
2023-05-24T00:28:04.469Z,73.44
2023-05-24T00:29:04.481Z,73.74
2023-05-24T00:30:04.487Z,73.95
2023-05-24T00:31:04.438Z,73.85
2023-05-24T00:32:04.537Z,73.64
2023-05-24T00:33:04.519Z,73.74
2023-05-24T00:34:04.450Z,73.95
2023-05-24T00:35:04.410Z,73.85
2023-05-24T00:36:04.391Z,73.54
2023-05-24T00:37:04.370Z,73.78
2023-05-24T00:38:04.390Z,74.29
2023-05-24T00:39:04.357Z,74.29
2023-05-24T00:40:04.408Z,74.90
2023-05-24T00:41:04.341Z,74.39
2023-05-24T00:42:04.837Z,74.70
2023-05-24T00:43:04.335Z,74.80
2023-05-24T00:44:04.309Z,74.90
2023-05-24T00:45:04.305Z,74.29
2023-05-24T00:46:04.345Z,74.08
2023-05-24T00:47:04.286Z,74.39
2023-05-24T00:48:04.343Z,73.98
2023-05-24T00:49:04.259Z,74.39
2023-05-24T00:50:04.226Z,74.39
2023-05-24T00:51:04.227Z,74.12
2023-05-24T00:52:04.219Z,74.43
2023-05-24T00:53:04.211Z,74.12
2023-05-24T00:54:04.679Z,74.32
2023-05-24T00:55:04.189Z,74.63
2023-05-24T00:56:04.199Z,74.94
2023-05-24T00:57:04.169Z,75.04
2023-05-24T00:58:04.142Z,75.24
2023-05-24T00:59:04.141Z,75.45
2023-05-24T01:00:04.129Z,76.10
2023-05-24T01:01:04.146Z,76.10
2023-05-24T01:02:04.339Z,76.10
2023-05-24T01:03:04.200Z,75.49
2023-05-24T01:04:04.092Z,75.59
2023-05-24T01:05:04.075Z,75.38
2023-05-24T01:06:04.268Z,75.28
2023-05-24T01:07:04.079Z,75.69
2023-05-24T01:08:04.080Z,75.08
2023-05-24T01:09:04.056Z,75.59
2023-05-24T01:10:04.087Z,75.49
2023-05-24T01:11:04.027Z,74.77
2023-05-24T01:12:08.037Z,75.18
2023-05-24T01:13:03.999Z,75.49
2023-05-24T01:14:04.003Z,75.38
2023-05-24T01:15:03.966Z,76.20
2023-05-24T01:16:03.998Z,76.31
2023-05-24T01:17:03.963Z,76.20
2023-05-24T01:18:03.994Z,76.00
2023-05-24T01:19:03.917Z,75.79
2023-05-24T01:20:03.961Z,76.10
2023-05-24T01:21:03.896Z,76.31
2023-05-24T01:22:03.917Z,75.69
2023-05-24T01:23:03.889Z,75.69
2023-05-24T01:24:03.904Z,76.10
2023-05-24T01:25:03.904Z,76.20
2023-05-24T01:26:03.901Z,76.00
2023-05-24T01:27:03.860Z,76.10
2023-05-24T01:28:04.039Z,76.00
2023-05-24T01:29:03.832Z,75.59
2023-05-24T01:30:03.882Z,76.00
2023-05-24T01:31:03.803Z,76.41
2023-05-24T01:32:03.830Z,76.45
2023-05-24T01:33:03.812Z,76.34
2023-05-24T01:34:03.790Z,76.34
2023-05-24T01:35:03.743Z,76.45
2023-05-24T01:36:03.741Z,76.75
2023-05-24T01:37:03.731Z,76.24
2023-05-24T01:38:03.715Z,76.86
2023-05-24T01:39:03.710Z,76.86
2023-05-24T01:40:03.696Z,77.37
2023-05-24T01:41:03.698Z,77.58
2023-05-24T01:42:03.674Z,77.81
2023-05-24T01:43:03.653Z,77.40
2023-05-24T01:44:03.650Z,77.51
2023-05-24T01:45:03.662Z,78.64
2023-05-24T01:46:03.649Z,78.74
2023-05-24T01:47:03.635Z,79.08
2023-05-24T01:48:03.661Z,79.19
2023-05-24T01:49:03.582Z,79.19
2023-05-24T01:50:03.586Z,79.29
2023-05-24T01:51:03.560Z,79.19
2023-05-24T01:52:03.668Z,79.08
2023-05-24T01:53:03.541Z,79.08
2023-05-24T01:54:03.621Z,79.22
2023-05-24T01:55:03.526Z,79.53
2023-05-24T01:56:03.653Z,79.84
2023-05-24T01:57:03.507Z,79.74
2023-05-24T01:58:03.484Z,79.67
2023-05-24T01:59:03.491Z,79.77
2023-05-24T02:00:05.164Z,80.19
2023-05-24T02:01:03.473Z,80.08
2023-05-24T02:02:03.565Z,80.19
2023-05-24T02:03:03.695Z,80.39
2023-05-24T02:04:03.465Z,80.80
2023-05-24T02:05:03.413Z,80.70
2023-05-24T02:06:03.442Z,80.84
2023-05-24T02:07:03.395Z,80.84
2023-05-24T02:08:03.378Z,81.25
2023-05-24T02:09:03.363Z,81.05
2023-05-24T02:10:03.651Z,81.25
2023-05-24T02:11:03.366Z,81.25
2023-05-24T02:12:03.437Z,81.15
2023-05-24T02:13:03.403Z,81.25
2023-05-24T02:14:03.548Z,80.84
2023-05-24T02:15:03.300Z,80.49
2023-05-24T02:16:03.305Z,80.39
2023-05-24T02:17:03.467Z,80.08
2023-05-24T02:18:03.315Z,80.19
2023-05-24T02:19:03.259Z,80.08
2023-05-24T02:20:03.293Z,80.19
2023-05-24T02:21:03.328Z,79.98
2023-05-24T02:22:03.253Z,79.88
2023-05-24T02:23:03.214Z,79.47
2023-05-24T02:24:03.216Z,79.88
2023-05-24T02:25:03.221Z,80.94
2023-05-24T02:26:03.205Z,81.76
2023-05-24T02:27:03.177Z,82.48
2023-05-24T02:28:03.155Z,82.73
2023-05-24T02:29:03.146Z,83.04
2023-05-24T02:30:03.150Z,83.86
2023-05-24T02:31:03.143Z,83.97
2023-05-24T02:32:03.156Z,83.80
2023-05-24T02:33:03.203Z,83.59
2023-05-24T02:34:03.098Z,83.49
2023-05-24T02:35:03.110Z,83.70
2023-05-24T02:36:03.081Z,84.77
2023-05-24T02:37:03.063Z,84.87
2023-05-24T02:38:03.099Z,84.97
2023-05-24T02:39:03.080Z,84.97
2023-05-24T02:40:03.148Z,85.42
2023-05-24T02:41:03.044Z,85.63
2023-05-24T02:42:03.015Z,85.42
2023-05-24T02:43:03.014Z,85.83
2023-05-24T02:44:02.981Z,86.24
2023-05-24T02:45:02.970Z,86.60
2023-05-24T02:46:03.046Z,87.32
2023-05-24T02:47:02.955Z,87.52
2023-05-24T02:48:02.977Z,87.21
2023-05-24T02:49:02.926Z,87.63
2023-05-24T02:50:02.932Z,87.63
2023-05-24T02:51:02.929Z,87.77
2023-05-24T02:52:02.897Z,87.98
2023-05-24T02:53:02.901Z,88.18
2023-05-24T02:54:03.441Z,88.39
2023-05-24T02:55:02.862Z,88.80
2023-05-24T02:56:02.862Z,89.01
2023-05-24T02:57:02.854Z,88.95
2023-05-24T02:58:02.854Z,88.95
2023-05-24T02:59:02.869Z,89.36
2023-05-24T03:00:02.825Z,89.67
2023-05-24T03:01:02.796Z,89.46
2023-05-24T03:02:02.859Z,89.56
2023-05-24T03:03:02.897Z,89.67
2023-05-24T03:04:03.034Z,89.67
2023-05-24T03:05:02.753Z,90.08
2023-05-24T03:06:02.769Z,90.19
2023-05-24T03:07:02.753Z,90.49
2023-05-24T03:08:02.715Z,90.70
2023-05-24T03:09:02.711Z,90.80
2023-05-24T03:10:02.730Z,90.59
2023-05-24T03:11:02.695Z,90.43
2023-05-24T03:12:02.705Z,90.22
2023-05-24T03:13:02.691Z,90.12
2023-05-24T03:14:02.654Z,89.92
2023-05-24T03:15:02.664Z,89.81
2023-05-24T03:16:02.705Z,90.33
2023-05-24T03:17:02.641Z,90.64
2023-05-24T03:18:02.694Z,90.74
2023-05-24T03:19:02.609Z,90.99
2023-05-24T03:20:02.733Z,90.99
2023-05-24T03:21:02.614Z,90.99
2023-05-24T03:22:02.591Z,91.30
2023-05-24T03:23:02.562Z,91.61
2023-05-24T03:24:02.621Z,91.71
2023-05-24T03:25:02.546Z,91.82
2023-05-24T03:26:02.609Z,92.02
2023-05-24T03:27:02.533Z,92.13
2023-05-24T03:28:02.538Z,92.23
2023-05-24T03:29:02.495Z,92.23
2023-05-24T03:30:02.579Z,92.33
2023-05-24T03:31:02.505Z,92.44
2023-05-24T03:32:02.633Z,92.58
2023-05-24T03:33:02.525Z,92.68
2023-05-24T03:34:02.481Z,92.68
2023-05-24T03:35:02.453Z,92.79
2023-05-24T03:36:02.442Z,92.99
2023-05-24T03:37:02.400Z,92.68
2023-05-24T03:38:02.462Z,92.38
2023-05-24T03:39:02.393Z,92.17
2023-05-24T03:40:02.421Z,92.21
2023-05-24T03:41:02.364Z,92.52
2023-05-24T03:42:02.417Z,92.72
2023-05-24T03:43:04.365Z,93.04
2023-05-24T03:44:02.356Z,93.35
2023-05-24T03:45:02.310Z,93.24
2023-05-24T03:46:02.413Z,93.14
2023-05-24T03:47:02.292Z,93.14
2023-05-24T03:48:02.380Z,93.35
2023-05-24T03:49:02.281Z,93.45
2023-05-24T03:50:02.298Z,93.87
2023-05-24T03:51:02.248Z,93.97
2023-05-24T03:52:02.777Z,93.66
2023-05-24T03:53:02.253Z,93.97
2023-05-24T03:54:02.645Z,94.28
2023-05-24T03:55:02.225Z,94.38
2023-05-24T03:56:02.198Z,94.48
2023-05-24T03:57:02.179Z,94.69
2023-05-24T03:58:02.196Z,94.79
2023-05-24T03:59:02.167Z,94.69
2023-05-24T04:00:02.212Z,94.28
2023-05-24T04:01:02.160Z,94.18
2023-05-24T04:02:02.177Z,94.28
2023-05-24T04:03:02.212Z,94.28
2023-05-24T04:04:02.303Z,94.69
2023-05-24T04:05:02.097Z,94.90
2023-05-24T04:06:02.160Z,94.59
2023-05-24T04:07:02.116Z,94.28
2023-05-24T04:08:02.194Z,94.28
2023-05-24T04:09:02.056Z,94.28
2023-05-24T04:10:02.080Z,94.28
2023-05-24T04:11:02.038Z,94.48
2023-05-24T04:12:02.200Z,94.90
2023-05-24T04:13:02.048Z,94.90
2023-05-24T04:14:01.998Z,95.10
2023-05-24T04:15:02.028Z,94.90
2023-05-24T04:16:02.012Z,95.00
2023-05-24T04:17:02.307Z,95.00
2023-05-24T04:18:02.000Z,94.90
2023-05-24T04:19:02.099Z,95.00
2023-05-24T04:20:01.979Z,95.10
2023-05-24T04:21:01.930Z,95.31
2023-05-24T04:22:01.905Z,95.42
2023-05-24T04:23:01.910Z,95.31
2023-05-24T04:24:01.946Z,95.21
2023-05-24T04:25:01.916Z,95.48
2023-05-24T04:26:01.924Z,95.48
2023-05-24T04:27:01.875Z,95.27
2023-05-24T04:28:01.941Z,95.06
2023-05-24T04:29:01.844Z,95.06
2023-05-24T04:30:01.844Z,95.17
2023-05-24T04:31:01.838Z,94.96
2023-05-24T04:32:01.827Z,94.85
2023-05-24T04:33:01.851Z,94.85
2023-05-24T04:34:01.823Z,94.85
2023-05-24T04:35:01.776Z,94.71
2023-05-24T04:36:01.767Z,94.81
2023-05-24T04:37:01.753Z,94.60
2023-05-24T04:38:01.755Z,94.50
2023-05-24T04:39:01.735Z,94.29
2023-05-24T04:40:01.728Z,94.40
2023-05-24T04:41:01.705Z,94.71
2023-05-24T04:42:01.703Z,94.60
2023-05-24T04:43:01.718Z,94.50
2023-05-24T04:44:01.691Z,94.60
2023-05-24T04:45:01.684Z,94.60
2023-05-24T04:46:01.654Z,94.67
2023-05-24T04:47:01.706Z,94.77
2023-05-24T04:48:01.977Z,94.67
2023-05-24T04:49:01.629Z,94.35
2023-05-24T04:50:01.671Z,94.35
2023-05-24T04:51:01.602Z,94.67
2023-05-24T04:52:01.621Z,95.07
2023-05-24T04:53:01.581Z,94.87
2023-05-24T04:54:01.629Z,94.82
2023-05-24T04:55:01.548Z,94.82
2023-05-24T04:56:01.558Z,94.93
2023-05-24T04:57:01.530Z,94.62
2023-05-24T04:58:01.522Z,94.62
2023-05-24T04:59:01.680Z,94.62
2023-05-24T05:00:01.573Z,94.62
2023-05-24T05:01:01.483Z,94.62
2023-05-24T05:02:01.575Z,94.62
2023-05-24T05:03:01.593Z,94.52
2023-05-24T05:04:01.476Z,94.62
2023-05-24T05:05:01.452Z,94.68
2023-05-24T05:06:01.441Z,94.68
2023-05-24T05:07:01.429Z,94.78
2023-05-24T05:08:01.428Z,94.68
2023-05-24T05:09:01.819Z,94.57
2023-05-24T05:10:01.395Z,94.57
2023-05-24T05:11:01.377Z,94.78
2023-05-24T05:12:01.376Z,94.89
2023-05-24T05:13:01.374Z,94.89
2023-05-24T05:14:01.338Z,94.68
2023-05-24T05:15:01.328Z,94.89
2023-05-24T05:16:01.331Z,95.36
2023-05-24T05:17:01.311Z,95.36
2023-05-24T05:18:01.336Z,95.25
2023-05-24T05:19:01.287Z,95.25
2023-05-24T05:20:01.313Z,95.31
2023-05-24T05:21:01.269Z,95.52
2023-05-24T05:22:01.265Z,95.42
2023-05-24T05:23:01.242Z,95.31
2023-05-24T05:24:01.283Z,95.52
2023-05-24T05:25:01.237Z,95.62
2023-05-24T05:26:01.240Z,95.58
2023-05-24T05:27:01.204Z,95.48
2023-05-24T05:28:01.189Z,95.58
2023-05-24T05:29:01.224Z,95.68
2023-05-24T05:30:01.202Z,95.43
2023-05-24T05:31:01.169Z,95.74
2023-05-24T05:32:01.217Z,95.53
2023-05-24T05:33:01.202Z,95.28
2023-05-24T05:34:01.122Z,95.49
2023-05-24T05:35:01.132Z,95.39
2023-05-24T05:36:01.124Z,95.08
2023-05-24T05:37:01.110Z,94.93
2023-05-24T05:38:01.092Z,94.58
2023-05-24T05:39:01.071Z,92.48
2023-05-24T05:40:01.055Z,90.08
2023-05-24T05:41:01.112Z,89.21
2023-05-24T05:42:01.050Z,88.90
2023-05-24T05:43:01.033Z,87.73
2023-05-24T05:44:01.024Z,87.32
2023-05-24T05:45:01.021Z,87.28
2023-05-24T05:46:01.039Z,87.38
2023-05-24T05:47:01.001Z,86.77
2023-05-24T05:48:01.046Z,85.80
2023-05-24T05:49:00.955Z,85.19
2023-05-24T05:50:00.952Z,84.88
2023-05-24T05:51:00.944Z,84.74
2023-05-24T05:52:00.955Z,83.61
2023-05-24T05:53:00.923Z,83.10
2023-05-24T05:54:00.931Z,82.69
2023-05-24T05:55:00.917Z,83.17
2023-05-24T05:56:00.949Z,82.65
2023-05-24T05:57:01.756Z,82.65
2023-05-24T05:58:00.877Z,81.63
2023-05-24T05:59:00.846Z,81.12
2023-05-24T06:00:00.866Z,81.90
2023-05-24T06:01:00.826Z,81.49
2023-05-24T06:02:00.846Z,81.49
2023-05-24T06:03:00.881Z,80.94
2023-05-24T06:04:00.871Z,80.83
2023-05-24T06:05:00.797Z,81.15
2023-05-24T06:06:00.770Z,80.63
2023-05-24T06:07:00.777Z,81.15
2023-05-24T06:08:00.794Z,80.08
2023-05-24T06:09:00.747Z,80.19
2023-05-24T06:10:00.737Z,79.88
2023-05-24T06:11:00.713Z,79.98
2023-05-24T06:12:00.724Z,80.76
2023-05-24T06:13:00.685Z,80.35
2023-05-24T06:14:00.727Z,79.29
2023-05-24T06:15:00.681Z,78.27
2023-05-24T06:16:00.696Z,78.88
2023-05-24T06:17:00.653Z,78.78
2023-05-24T06:18:00.741Z,77.45
2023-05-24T06:19:06.025Z,77.45
2023-05-24T06:20:01.690Z,78.07
2023-05-24T06:21:00.610Z,77.45
2023-05-24T06:22:00.585Z,77.66
2023-05-24T06:23:00.600Z,78.07
2023-05-24T06:24:00.583Z,78.23
2023-05-24T06:25:00.562Z,78.23
2023-05-24T06:26:00.555Z,78.50
2023-05-24T06:27:00.828Z,77.59
2023-05-24T06:28:00.552Z,76.53
2023-05-24T06:29:00.529Z,76.32
2023-05-24T06:30:00.562Z,76.22
2023-05-24T06:31:00.585Z,76.12
2023-05-24T06:32:00.529Z,75.31
2023-05-24T06:33:00.548Z,74.90
2023-05-24T06:34:03.759Z,75.20
2023-05-24T06:35:00.458Z,74.79
2023-05-24T06:36:00.455Z,74.29
2023-05-24T06:37:00.438Z,75.51
2023-05-24T06:38:00.465Z,75.31
2023-05-24T06:39:00.406Z,75.82
2023-05-24T06:40:00.414Z,75.82
2023-05-24T06:41:00.381Z,75.92
2023-05-24T06:42:00.518Z,74.69
2023-05-24T06:43:00.363Z,74.18
2023-05-24T06:44:00.361Z,73.74
2023-05-24T06:45:00.375Z,73.54
2023-05-24T06:46:00.329Z,73.84
2023-05-24T06:47:00.455Z,73.71
2023-05-24T06:48:00.470Z,74.11
2023-05-24T06:49:00.444Z,73.77
2023-05-24T06:50:00.301Z,73.97
2023-05-24T06:51:00.275Z,73.26
2023-05-24T06:52:00.281Z,73.19
2023-05-24T06:53:00.251Z,72.86
2023-05-24T06:54:00.248Z,72.79
2023-05-24T06:55:00.238Z,73.88
2023-05-24T06:56:00.241Z,73.77
2023-05-24T06:57:00.221Z,73.23
2023-05-24T06:58:00.202Z,73.33
2023-05-24T06:59:00.205Z,73.13
2023-05-24T07:00:00.178Z,72.21
2023-05-24T07:01:00.213Z,72.41
2023-05-24T07:02:01.989Z,72.17
2023-05-24T07:03:00.209Z,72.11
2023-05-24T07:04:00.172Z,72.21
2023-05-24T07:05:00.197Z,71.80
2023-05-24T07:06:00.162Z,72.62
2023-05-24T07:07:00.138Z,72.86
2023-05-24T07:08:00.133Z,72.38
2023-05-24T07:09:00.084Z,72.69
2023-05-24T07:10:00.090Z,73.30
2023-05-24T07:11:00.086Z,72.45
2023-05-24T07:12:00.060Z,71.50
2023-05-24T07:13:00.129Z,72.82
2023-05-24T07:14:00.033Z,72.69
2023-05-24T07:15:00.027Z,70.51
2023-05-24T07:15:59.999Z,70.10
2023-05-24T07:17:00.174Z,69.19
2023-05-24T07:18:00.006Z,69.97
2023-05-24T07:19:01.328Z,69.26
2023-05-24T07:20:00.021Z,67.46
2023-05-24T07:20:59.942Z,68.07
2023-05-24T07:21:59.935Z,68.65
2023-05-24T07:22:59.939Z,68.55
2023-05-24T07:23:59.935Z,68.14
2023-05-24T07:24:59.908Z,67.43
2023-05-24T07:25:59.908Z,67.46
2023-05-24T07:26:59.877Z,67.43
2023-05-24T07:27:59.866Z,67.86
2023-05-24T07:28:59.882Z,68.48
2023-05-24T07:29:59.845Z,68.57
2023-05-24T07:30:59.857Z,69.39
2023-05-24T07:31:59.856Z,70.21
2023-05-24T07:32:59.961Z,68.27
2023-05-24T07:33:59.817Z,68.88
2023-05-24T07:34:59.792Z,69.67
2023-05-24T07:35:59.790Z,68.34
2023-05-24T07:36:59.762Z,69.15
2023-05-24T07:37:59.776Z,68.85
2023-05-24T07:38:59.763Z,68.54
2023-05-24T07:39:59.737Z,68.98
2023-05-24T07:40:59.715Z,67.43
2023-05-24T07:41:59.735Z,66.99
2023-05-24T07:42:59.720Z,66.24
2023-05-24T07:43:59.702Z,66.17
2023-05-24T07:44:59.677Z,66.30
2023-05-24T07:45:59.726Z,67.49
2023-05-24T07:46:59.746Z,68.91
2023-05-24T07:47:59.755Z,69.32
2023-05-24T07:48:59.649Z,69.70
2023-05-24T07:49:59.641Z,68.30
2023-05-24T07:50:59.631Z,69.32
2023-05-24T07:51:59.667Z,69.05
2023-05-24T07:52:59.621Z,70.17
2023-05-24T07:53:59.597Z,69.25
2023-05-24T07:54:59.569Z,69.05
2023-05-24T07:55:59.584Z,69.08
2023-05-24T07:56:59.573Z,68.67
2023-05-24T07:57:59.555Z,69.25
2023-05-24T07:58:59.552Z,69.76
2023-05-24T07:59:59.542Z,69.76
2023-05-24T08:00:59.524Z,69.96
2023-05-24T08:01:59.510Z,68.61
2023-05-24T08:02:59.581Z,68.61
2023-05-24T08:03:59.628Z,68.20
2023-05-24T08:04:59.551Z,68.37
2023-05-24T08:05:59.462Z,68.85
2023-05-24T08:06:59.546Z,67.05
2023-05-24T08:07:59.434Z,68.30
2023-05-24T08:08:59.408Z,67.90
2023-05-24T08:09:59.414Z,68.27
2023-05-24T08:10:59.417Z,67.80
2023-05-24T08:11:59.393Z,67.80
2023-05-24T08:12:59.367Z,66.88
2023-05-24T08:13:59.388Z,66.35
2023-05-24T08:14:59.372Z,65.22
2023-05-24T08:15:59.397Z,65.91
2023-05-24T08:16:59.322Z,65.57
2023-05-24T08:17:59.362Z,64.55
2023-05-24T08:18:59.312Z,65.97
2023-05-24T08:19:59.331Z,64.15
2023-05-24T08:20:59.278Z,64.45
2023-05-24T08:21:59.272Z,64.35
2023-05-24T08:22:59.272Z,64.45
2023-05-24T08:23:59.257Z,64.22
2023-05-24T08:24:59.243Z,63.20
2023-05-24T08:25:59.234Z,63.30
2023-05-24T08:26:59.222Z,63.78
2023-05-24T08:27:59.261Z,63.78
2023-05-24T08:28:59.200Z,62.74
2023-05-24T08:29:59.203Z,62.43
2023-05-24T08:30:59.163Z,62.94
2023-05-24T08:31:59.241Z,62.74
2023-05-24T08:32:59.218Z,60.91
2023-05-24T08:33:59.165Z,59.89
2023-05-24T08:35:14.804Z,61.62
2023-05-24T08:36:00.162Z,62.20
2023-05-24T08:36:59.103Z,61.41
2023-05-24T08:37:59.105Z,62.46
2023-05-24T08:38:59.113Z,63.10
2023-05-24T08:39:59.064Z,64.01
2023-05-24T08:40:59.077Z,65.77
2023-05-24T08:42:08.620Z,62.72
2023-05-24T08:43:00.056Z,63.26
2023-05-24T08:43:59.050Z,62.96
2023-05-24T08:44:59.031Z,63.26
2023-05-24T08:45:59.118Z,64.04
2023-05-24T08:46:59.005Z,64.55
2023-05-24T08:47:59.122Z,64.32
2023-05-24T08:48:59.002Z,63.10
2023-05-24T08:49:58.970Z,63.71
2023-05-24T08:50:58.953Z,64.42
2023-05-24T08:51:58.942Z,64.01
2023-05-24T08:52:58.965Z,63.85
2023-05-24T08:53:58.926Z,63.45
2023-05-24T08:54:58.913Z,62.71
2023-05-24T08:55:58.905Z,62.91
2023-05-24T08:56:58.898Z,62.68
2023-05-24T08:57:58.955Z,61.97
2023-05-24T08:58:58.869Z,60.88
2023-05-24T08:59:58.858Z,62.48
2023-05-24T09:00:58.862Z,61.13
2023-05-24T09:01:58.877Z,60.39
2023-05-24T09:02:58.886Z,58.84
2023-05-24T09:03:58.844Z,58.90
2023-05-24T09:04:58.808Z,59.78
2023-05-24T09:05:58.794Z,60.16
2023-05-24T09:06:58.785Z,59.07
2023-05-24T09:07:58.765Z,59.45
2023-05-24T09:08:58.759Z,59.20
2023-05-24T09:09:58.748Z,59.23
2023-05-24T09:10:59.066Z,60.27
2023-05-24T09:11:58.753Z,60.47
2023-05-24T09:12:58.716Z,60.78
2023-05-24T09:13:58.711Z,61.29
2023-05-24T09:14:58.789Z,61.05
2023-05-24T09:15:58.695Z,62.24
2023-05-24T09:16:58.668Z,60.72
2023-05-24T09:17:58.710Z,61.30
2023-05-24T09:18:58.656Z,60.86
2023-05-24T09:19:58.674Z,58.41
2023-05-24T09:20:58.712Z,58.81
2023-05-24T09:21:58.616Z,58.38
2023-05-24T09:22:58.612Z,58.89
2023-05-24T09:23:58.605Z,58.78
2023-05-24T09:24:58.590Z,60.30
2023-05-24T09:25:58.586Z,60.03
2023-05-24T09:26:58.574Z,60.97
2023-05-24T09:27:58.557Z,61.91
2023-05-24T09:28:58.543Z,61.83
2023-05-24T09:29:58.568Z,61.76
2023-05-24T09:30:58.656Z,61.82
2023-05-24T09:31:58.611Z,62.16
2023-05-24T09:32:58.642Z,61.68
2023-05-24T09:33:58.484Z,62.49
2023-05-24T09:34:58.493Z,62.49
2023-05-24T09:35:58.464Z,64.25
2023-05-24T09:36:58.458Z,63.43
2023-05-24T09:37:58.440Z,63.94
2023-05-24T09:38:58.430Z,63.87
2023-05-24T09:39:58.463Z,64.89
2023-05-24T09:40:58.422Z,64.69
2023-05-24T09:41:58.387Z,64.69
2023-05-24T09:42:58.381Z,63.77
2023-05-24T09:43:58.381Z,65.19
2023-05-24T09:44:58.377Z,65.09
2023-05-24T09:45:58.354Z,65.70
2023-05-24T09:46:58.350Z,65.70
2023-05-24T09:47:58.369Z,65.60
2023-05-24T09:48:58.368Z,65.19
2023-05-24T09:49:58.310Z,64.69
2023-05-24T09:50:58.298Z,64.99
2023-05-24T09:51:58.321Z,64.28
2023-05-24T09:52:58.290Z,64.48
2023-05-24T09:53:58.289Z,65.09
2023-05-24T09:54:58.250Z,64.69
2023-05-24T09:55:58.241Z,65.19
2023-05-24T09:56:58.234Z,65.57
2023-05-24T09:57:58.244Z,66.08
2023-05-24T09:58:58.227Z,65.36
2023-05-24T09:59:58.194Z,65.06
2023-05-24T10:00:58.218Z,64.96
2023-05-24T10:01:58.178Z,64.35
2023-05-24T10:02:58.209Z,64.96
2023-05-24T10:03:58.312Z,65.36
2023-05-24T10:04:58.342Z,65.16
2023-05-24T10:05:58.127Z,64.04
2023-05-24T10:06:58.151Z,62.41
2023-05-24T10:07:58.121Z,62.11
2023-05-24T10:08:58.110Z,61.81
2023-05-24T10:09:58.088Z,63.13
2023-05-24T10:10:58.078Z,62.01
2023-05-24T10:11:58.090Z,63.10
2023-05-24T10:12:58.056Z,61.88
2023-05-24T10:13:58.108Z,62.70
2023-05-24T10:14:58.056Z,62.18
2023-05-24T10:15:58.038Z,60.25
2023-05-24T10:16:58.090Z,60.56
2023-05-24T10:17:58.109Z,61.68
2023-05-24T10:18:57.991Z,62.59
2023-05-24T10:19:58.028Z,62.56
2023-05-24T10:20:58.340Z,63.28
2023-05-24T10:21:58.056Z,62.33
2023-05-24T10:22:57.961Z,61.79
2023-05-24T10:23:57.932Z,61.39
2023-05-24T10:24:57.937Z,61.79
2023-05-24T10:25:57.939Z,60.68
2023-05-24T10:26:57.908Z,62.48
2023-05-24T10:27:57.901Z,61.36
2023-05-24T10:28:57.890Z,61.97
2023-05-24T10:29:57.888Z,61.87
2023-05-24T10:30:57.909Z,61.46
2023-05-24T10:31:57.956Z,60.75
2023-05-24T10:32:57.879Z,60.75
2023-05-24T10:34:06.630Z,60.75
2023-05-24T10:34:58.827Z,61.25
2023-05-24T10:35:57.837Z,61.36
2023-05-24T10:36:57.792Z,61.25
2023-05-24T10:37:57.776Z,61.05
2023-05-24T10:38:57.782Z,61.74
2023-05-24T10:39:57.794Z,61.74
2023-05-24T10:40:57.745Z,60.11
2023-05-24T10:41:57.737Z,60.24
2023-05-24T10:42:57.724Z,60.44
2023-05-24T10:44:09.169Z,61.46
2023-05-24T10:44:58.713Z,60.75
2023-05-24T10:45:57.707Z,61.02
2023-05-24T10:46:57.685Z,60.75
2023-05-24T10:47:57.735Z,61.33
2023-05-24T10:48:57.680Z,60.82
2023-05-24T10:49:57.661Z,60.93
2023-05-24T10:50:57.656Z,60.44
2023-05-24T10:51:57.644Z,61.23
2023-05-24T10:52:57.636Z,61.13
2023-05-24T10:53:57.619Z,61.60
2023-05-24T10:55:03.383Z,61.60
2023-05-24T10:55:58.583Z,59.84
2023-05-24T10:56:57.569Z,60.58
2023-05-24T10:57:57.567Z,61.49
2023-05-24T10:58:57.558Z,61.49
2023-05-24T10:59:57.549Z,63.32
2023-05-24T11:00:57.527Z,63.21
2023-05-24T11:01:57.556Z,66.63
2023-05-24T11:02:57.562Z,64.40
2023-05-24T11:03:57.512Z,64.17
2023-05-24T11:04:57.532Z,64.88
2023-05-24T11:05:57.585Z,63.96
2023-05-24T11:06:57.458Z,62.57
2023-05-24T11:07:57.482Z,62.17
2023-05-24T11:08:57.445Z,62.98
2023-05-24T11:09:57.443Z,62.10
2023-05-24T11:10:57.423Z,63.11
2023-05-24T11:11:57.416Z,63.96
2023-05-24T11:12:57.401Z,62.69
2023-05-24T11:13:57.664Z,61.00
2023-05-24T11:14:57.389Z,62.41
2023-05-24T11:15:57.371Z,62.59
2023-05-24T11:16:57.405Z,62.18
2023-05-24T11:17:57.392Z,61.17
2023-05-24T11:18:57.335Z,61.10
2023-05-24T11:19:57.364Z,62.01
2023-05-24T11:20:57.315Z,61.53
2023-05-24T11:21:57.355Z,62.54
2023-05-24T11:22:57.320Z,63.39
2023-05-24T11:23:57.312Z,63.21
2023-05-24T11:24:57.284Z,63.11
2023-05-24T11:25:57.253Z,63.72
2023-05-24T11:26:57.332Z,65.65
2023-05-24T11:27:57.269Z,63.01
2023-05-24T11:28:57.243Z,62.74
2023-05-24T11:29:57.226Z,62.53
2023-05-24T11:30:57.227Z,62.74
2023-05-24T11:31:57.266Z,62.74
2023-05-24T11:32:57.270Z,63.04
2023-05-24T11:33:57.191Z,62.33
2023-05-24T11:34:57.163Z,63.24
2023-05-24T11:35:57.166Z,63.45
2023-05-24T11:36:57.141Z,64.13
2023-05-24T11:37:57.154Z,65.14
2023-05-24T11:38:57.108Z,63.69
2023-05-24T11:39:57.113Z,63.08
2023-05-24T11:40:57.116Z,62.98
2023-05-24T11:41:57.086Z,61.74
2023-05-24T11:42:57.067Z,62.11
2023-05-24T11:43:57.064Z,61.44
2023-05-24T11:44:57.072Z,61.11
2023-05-24T11:45:57.091Z,58.56
2023-05-24T11:46:57.041Z,58.96
2023-05-24T11:47:57.056Z,62.07
2023-05-24T11:48:57.009Z,62.67
2023-05-24T11:49:57.076Z,60.22
2023-05-24T11:50:57.007Z,60.72
2023-05-24T11:51:57.054Z,59.14
2023-05-24T11:52:56.960Z,58.63
2023-05-24T11:53:56.973Z,58.93
2023-05-24T11:54:56.952Z,57.54
2023-05-24T11:55:56.932Z,61.19
2023-05-24T11:56:56.910Z,58.86
2023-05-24T11:57:56.909Z,57.29
2023-05-24T11:58:56.912Z,57.45
2023-05-24T11:59:56.911Z,59.38
2023-05-24T12:00:56.881Z,61.60
2023-05-24T12:01:56.914Z,60.11
2023-05-24T12:02:57.324Z,61.13
2023-05-24T12:03:56.959Z,61.05
2023-05-24T12:04:56.868Z,61.56
2023-05-24T12:05:56.846Z,61.56
2023-05-24T12:06:56.816Z,61.56
2023-05-24T12:07:56.819Z,62.07
2023-05-24T12:08:56.800Z,62.57
2023-05-24T12:09:56.782Z,63.32
2023-05-24T12:10:56.761Z,63.72
2023-05-24T12:11:56.775Z,64.94
2023-05-24T12:12:56.745Z,64.13
2023-05-24T12:13:56.737Z,64.03
2023-05-24T12:14:56.720Z,64.43
2023-05-24T12:15:57.109Z,64.73
2023-05-24T12:16:56.703Z,64.64
2023-05-24T12:17:56.941Z,63.65
2023-05-24T12:19:05.372Z,63.85
2023-05-24T12:19:57.745Z,64.15
2023-05-24T12:20:56.672Z,63.55
2023-05-24T12:21:56.647Z,63.55
2023-05-24T12:22:56.642Z,64.15
2023-05-24T12:23:56.645Z,64.15
2023-05-24T12:24:56.605Z,64.56
2023-05-24T12:25:56.599Z,64.56
2023-05-24T12:26:56.623Z,64.46
2023-05-24T12:27:56.580Z,63.24
2023-05-24T12:28:56.572Z,64.06
2023-05-24T12:29:56.554Z,64.76
2023-05-24T12:30:56.563Z,65.78
2023-05-24T12:31:56.588Z,63.55
2023-05-24T12:32:56.601Z,62.94
2023-05-24T12:33:56.523Z,62.46
2023-05-24T12:34:56.495Z,62.87
2023-05-24T12:35:56.509Z,63.78
2023-05-24T12:36:56.489Z,64.09
2023-05-24T12:37:56.449Z,64.70
2023-05-24T12:38:56.503Z,64.09
2023-05-24T12:39:56.441Z,64.29
2023-05-24T12:41:11.419Z,63.68
2023-05-24T12:42:01.201Z,64.18
2023-05-24T12:42:56.412Z,64.09
2023-05-24T12:43:56.409Z,63.07
2023-05-24T12:44:56.394Z,63.98
2023-05-24T12:45:56.383Z,64.67
2023-05-24T12:46:56.403Z,63.45
2023-05-24T12:47:56.364Z,63.24
2023-05-24T12:48:56.327Z,63.55
2023-05-24T12:49:56.346Z,62.63
2023-05-24T12:50:56.340Z,62.53
2023-05-24T12:51:56.292Z,62.63